sensor_id;sensor_type;location;lat;lon;timestamp;P1;durP1;ratioP1;P2;durP2;ratioP2
10313;SDS011;5202;49.138;10.090;2022-08-23T00:01:33;4.93;;;2.55;;
10313;SDS011;5202;49.138;10.090;2022-08-23T00:04:05;3.95;;;2.60;;
10313;SDS011;5202;49.138;10.090;2022-08-23T00:06:38;2.83;;;2.47;;
10313;SDS011;5202;49.138;10.090;2022-08-23T00:09:08;2.88;;;2.60;;
10313;SDS011;5202;49.138;10.090;2022-08-23T00:11:38;3.28;;;2.20;;
10313;SDS011;5202;49.138;10.090;2022-08-23T00:14:11;3.55;;;2.20;;
10313;SDS011;5202;49.138;10.090;2022-08-23T00:16:46;4.72;;;2.60;;
10313;SDS011;5202;49.138;10.090;2022-08-23T00:19:18;13.23;;;2.95;;
10313;SDS011;5202;49.138;10.090;2022-08-23T00:21:49;4.10;;;2.50;;
10313;SDS011;5202;49.138;10.090;2022-08-23T00:24:22;8.40;;;3.38;;
10313;SDS011;5202;49.138;10.090;2022-08-23T00:26:53;2.72;;;2.22;;
10313;SDS011;5202;49.138;10.090;2022-08-23T00:29:27;3.00;;;2.65;;
10313;SDS011;5202;49.138;10.090;2022-08-23T00:32:00;3.53;;;2.63;;
10313;SDS011;5202;49.138;10.090;2022-08-23T00:34:30;4.38;;;2.75;;
10313;SDS011;5202;49.138;10.090;2022-08-23T00:36:58;3.13;;;2.60;;
10313;SDS011;5202;49.138;10.090;2022-08-23T00:39:26;4.55;;;2.80;;
10313;SDS011;5202;49.138;10.090;2022-08-23T00:41:56;3.03;;;2.65;;
10313;SDS011;5202;49.138;10.090;2022-08-23T00:44:50;3.85;;;2.50;;
10313;SDS011;5202;49.138;10.090;2022-08-23T00:47:38;4.25;;;2.72;;
10313;SDS011;5202;49.138;10.090;2022-08-23T00:50:17;4.07;;;2.75;;
10313;SDS011;5202;49.138;10.090;2022-08-23T00:52:55;4.68;;;2.67;;
10313;SDS011;5202;49.138;10.090;2022-08-23T00:55:30;3.72;;;2.50;;
10313;SDS011;5202;49.138;10.090;2022-08-23T00:58:00;3.17;;;2.40;;
10313;SDS011;5202;49.138;10.090;2022-08-23T01:00:30;7.28;;;2.55;;
10313;SDS011;5202;49.138;10.090;2022-08-23T01:03:00;4.23;;;2.90;;
10313;SDS011;5202;49.138;10.090;2022-08-23T01:05:34;3.80;;;2.78;;
10313;SDS011;5202;49.138;10.090;2022-08-23T01:08:11;3.65;;;3.28;;
10313;SDS011;5202;49.138;10.090;2022-08-23T01:10:41;4.55;;;2.67;;
10313;SDS011;5202;49.138;10.090;2022-08-23T01:13:15;3.83;;;2.50;;
10313;SDS011;5202;49.138;10.090;2022-08-23T01:15:50;4.70;;;3.03;;
10313;SDS011;5202;49.138;10.090;2022-08-23T01:18:24;4.65;;;3.15;;
10313;SDS011;5202;49.138;10.090;2022-08-23T01:20:55;2.97;;;2.72;;
10313;SDS011;5202;49.138;10.090;2022-08-23T01:23:39;5.05;;;2.85;;
10313;SDS011;5202;49.138;10.090;2022-08-23T01:26:10;3.37;;;2.60;;
10313;SDS011;5202;49.138;10.090;2022-08-23T01:28:48;2.70;;;2.50;;
10313;SDS011;5202;49.138;10.090;2022-08-23T01:31:19;2.88;;;2.63;;
10313;SDS011;5202;49.138;10.090;2022-08-23T01:33:52;4.20;;;2.70;;
10313;SDS011;5202;49.138;10.090;2022-08-23T01:36:25;3.13;;;2.63;;
10313;SDS011;5202;49.138;10.090;2022-08-23T01:38:55;4.80;;;2.90;;
10313;SDS011;5202;49.138;10.090;2022-08-23T01:41:23;2.80;;;2.60;;
10313;SDS011;5202;49.138;10.090;2022-08-23T01:43:53;4.37;;;3.00;;
10313;SDS011;5202;49.138;10.090;2022-08-23T01:46:23;3.03;;;2.73;;
10313;SDS011;5202;49.138;10.090;2022-08-23T01:48:53;2.83;;;2.60;;
10313;SDS011;5202;49.138;10.090;2022-08-23T01:51:23;5.07;;;2.67;;
10313;SDS011;5202;49.138;10.090;2022-08-23T01:53:52;3.17;;;2.50;;
10313;SDS011;5202;49.138;10.090;2022-08-23T01:56:24;3.77;;;2.67;;
10313;SDS011;5202;49.138;10.090;2022-08-23T01:59:07;4.07;;;2.80;;
10313;SDS011;5202;49.138;10.090;2022-08-23T02:01:44;3.37;;;3.07;;
10313;SDS011;5202;49.138;10.090;2022-08-23T02:04:14;3.00;;;2.73;;
10313;SDS011;5202;49.138;10.090;2022-08-23T02:06:43;3.30;;;2.73;;
10313;SDS011;5202;49.138;10.090;2022-08-23T02:09:17;5.50;;;3.00;;
10313;SDS011;5202;49.138;10.090;2022-08-23T02:11:46;5.23;;;2.97;;
10313;SDS011;5202;49.138;10.090;2022-08-23T02:14:17;5.13;;;3.00;;
10313;SDS011;5202;49.138;10.090;2022-08-23T02:16:51;6.07;;;3.50;;
10313;SDS011;5202;49.138;10.090;2022-08-23T02:19:30;3.33;;;3.00;;
10313;SDS011;5202;49.138;10.090;2022-08-23T02:22:00;3.50;;;3.17;;
10313;SDS011;5202;49.138;10.090;2022-08-23T02:24:30;2.93;;;2.70;;
10313;SDS011;5202;49.138;10.090;2022-08-23T02:27:02;3.13;;;2.70;;
10313;SDS011;5202;49.138;10.090;2022-08-23T02:29:37;3.97;;;3.20;;
10313;SDS011;5202;49.138;10.090;2022-08-23T02:32:09;5.07;;;2.80;;
10313;SDS011;5202;49.138;10.090;2022-08-23T02:34:41;4.83;;;3.10;;
10313;SDS011;5202;49.138;10.090;2022-08-23T02:37:27;3.23;;;2.93;;
10313;SDS011;5202;49.138;10.090;2022-08-23T02:39:57;4.93;;;2.73;;
10313;SDS011;5202;49.138;10.090;2022-08-23T02:42:26;4.20;;;3.20;;
10313;SDS011;5202;49.138;10.090;2022-08-23T02:44:55;6.43;;;2.80;;
10313;SDS011;5202;49.138;10.090;2022-08-23T02:47:23;3.27;;;2.83;;
10313;SDS011;5202;49.138;10.090;2022-08-23T02:50:12;3.90;;;2.97;;
10313;SDS011;5202;49.138;10.090;2022-08-23T02:52:42;3.77;;;2.83;;
10313;SDS011;5202;49.138;10.090;2022-08-23T02:55:11;4.83;;;3.13;;
10313;SDS011;5202;49.138;10.090;2022-08-23T02:57:40;4.47;;;3.40;;
10313;SDS011;5202;49.138;10.090;2022-08-23T03:00:12;4.97;;;3.67;;
10313;SDS011;5202;49.138;10.090;2022-08-23T03:02:43;5.20;;;3.20;;
10313;SDS011;5202;49.138;10.090;2022-08-23T03:05:12;4.13;;;3.40;;
10313;SDS011;5202;49.138;10.090;2022-08-23T03:07:42;4.97;;;2.83;;
10313;SDS011;5202;49.138;10.090;2022-08-23T03:10:12;4.57;;;3.20;;
10313;SDS011;5202;49.138;10.090;2022-08-23T03:12:47;5.20;;;3.53;;
10313;SDS011;5202;49.138;10.090;2022-08-23T03:15:15;5.37;;;3.67;;
10313;SDS011;5202;49.138;10.090;2022-08-23T03:17:44;3.80;;;3.50;;
10313;SDS011;5202;49.138;10.090;2022-08-23T03:20:13;3.07;;;2.87;;
10313;SDS011;5202;49.138;10.090;2022-08-23T03:22:45;4.13;;;3.47;;
10313;SDS011;5202;49.138;10.090;2022-08-23T03:25:22;4.80;;;3.60;;
10313;SDS011;5202;49.138;10.090;2022-08-23T03:28:01;3.70;;;3.30;;
10313;SDS011;5202;49.138;10.090;2022-08-23T03:30:33;5.37;;;3.07;;
10313;SDS011;5202;49.138;10.090;2022-08-23T03:33:04;6.63;;;3.33;;
10313;SDS011;5202;49.138;10.090;2022-08-23T03:35:32;7.67;;;4.07;;
10313;SDS011;5202;49.138;10.090;2022-08-23T03:38:02;3.33;;;3.03;;
10313;SDS011;5202;49.138;10.090;2022-08-23T03:40:32;4.13;;;2.97;;
10313;SDS011;5202;49.138;10.090;2022-08-23T03:43:00;3.40;;;3.10;;
10313;SDS011;5202;49.138;10.090;2022-08-23T03:45:29;3.97;;;3.10;;
10313;SDS011;5202;49.138;10.090;2022-08-23T03:47:58;2.60;;;2.40;;
10313;SDS011;5202;49.138;10.090;2022-08-23T03:50:30;3.40;;;3.03;;
10313;SDS011;5202;49.138;10.090;2022-08-23T03:52:58;4.70;;;3.07;;
10313;SDS011;5202;49.138;10.090;2022-08-23T03:55:27;3.67;;;2.87;;
10313;SDS011;5202;49.138;10.090;2022-08-23T03:57:59;4.80;;;3.00;;
10313;SDS011;5202;49.138;10.090;2022-08-23T04:00:28;4.07;;;3.07;;
10313;SDS011;5202;49.138;10.090;2022-08-23T04:02:56;3.37;;;2.87;;
10313;SDS011;5202;49.138;10.090;2022-08-23T04:05:28;7.43;;;3.10;;
10313;SDS011;5202;49.138;10.090;2022-08-23T04:08:05;3.13;;;2.83;;
10313;SDS011;5202;49.138;10.090;2022-08-23T04:10:38;4.23;;;2.83;;
10313;SDS011;5202;49.138;10.090;2022-08-23T04:13:08;3.47;;;3.17;;
10313;SDS011;5202;49.138;10.090;2022-08-23T04:15:36;6.27;;;3.27;;
10313;SDS011;5202;49.138;10.090;2022-08-23T04:18:08;3.30;;;3.00;;
10313;SDS011;5202;49.138;10.090;2022-08-23T04:20:37;4.20;;;3.50;;
10313;SDS011;5202;49.138;10.090;2022-08-23T04:23:05;3.20;;;2.90;;
10313;SDS011;5202;49.138;10.090;2022-08-23T04:25:44;4.13;;;3.07;;
10313;SDS011;5202;49.138;10.090;2022-08-23T04:28:14;4.07;;;3.10;;
10313;SDS011;5202;49.138;10.090;2022-08-23T04:30:43;4.30;;;2.90;;
10313;SDS011;5202;49.138;10.090;2022-08-23T04:33:13;3.33;;;2.93;;
10313;SDS011;5202;49.138;10.090;2022-08-23T04:35:44;3.47;;;3.03;;
10313;SDS011;5202;49.138;10.090;2022-08-23T04:38:12;4.00;;;3.30;;
10313;SDS011;5202;49.138;10.090;2022-08-23T04:40:51;3.93;;;3.53;;
10313;SDS011;5202;49.138;10.090;2022-08-23T04:43:39;3.67;;;3.30;;
10313;SDS011;5202;49.138;10.090;2022-08-23T04:46:11;4.53;;;3.60;;
10313;SDS011;5202;49.138;10.090;2022-08-23T04:48:42;4.90;;;3.43;;
10313;SDS011;5202;49.138;10.090;2022-08-23T04:51:12;3.43;;;3.13;;
10313;SDS011;5202;49.138;10.090;2022-08-23T04:53:41;4.20;;;2.90;;
10313;SDS011;5202;49.138;10.090;2022-08-23T04:56:39;5.23;;;3.60;;
10313;SDS011;5202;49.138;10.090;2022-08-23T04:59:11;3.50;;;2.93;;
10313;SDS011;5202;49.138;10.090;2022-08-23T05:01:42;5.03;;;2.93;;
10313;SDS011;5202;49.138;10.090;2022-08-23T05:04:11;3.50;;;3.20;;
10313;SDS011;5202;49.138;10.090;2022-08-23T05:06:42;3.30;;;2.80;;
10313;SDS011;5202;49.138;10.090;2022-08-23T05:09:11;3.43;;;2.90;;
10313;SDS011;5202;49.138;10.090;2022-08-23T05:11:46;3.33;;;3.03;;
10313;SDS011;5202;49.138;10.090;2022-08-23T05:14:16;4.00;;;3.10;;
10313;SDS011;5202;49.138;10.090;2022-08-23T05:16:45;3.70;;;2.97;;
10313;SDS011;5202;49.138;10.090;2022-08-23T05:19:13;4.47;;;3.10;;
10313;SDS011;5202;49.138;10.090;2022-08-23T05:21:43;4.13;;;3.40;;
10313;SDS011;5202;49.138;10.090;2022-08-23T05:24:13;4.57;;;3.37;;
10313;SDS011;5202;49.138;10.090;2022-08-23T05:26:44;4.63;;;3.50;;
10313;SDS011;5202;49.138;10.090;2022-08-23T05:29:13;5.03;;;3.63;;
10313;SDS011;5202;49.138;10.090;2022-08-23T05:31:47;4.53;;;3.40;;
10313;SDS011;5202;49.138;10.090;2022-08-23T05:34:19;5.27;;;4.30;;
10313;SDS011;5202;49.138;10.090;2022-08-23T05:36:54;4.23;;;3.83;;
10313;SDS011;5202;49.138;10.090;2022-08-23T05:39:28;4.27;;;3.87;;
10313;SDS011;5202;49.138;10.090;2022-08-23T05:42:03;4.40;;;3.97;;
10313;SDS011;5202;49.138;10.090;2022-08-23T05:44:35;6.77;;;3.87;;
10313;SDS011;5202;49.138;10.090;2022-08-23T05:47:07;5.37;;;4.07;;
10313;SDS011;5202;49.138;10.090;2022-08-23T05:49:58;5.57;;;3.63;;
10313;SDS011;5202;49.138;10.090;2022-08-23T05:52:30;3.43;;;3.13;;
10313;SDS011;5202;49.138;10.090;2022-08-23T05:54:59;4.03;;;3.63;;
10313;SDS011;5202;49.138;10.090;2022-08-23T05:57:39;4.30;;;3.27;;
10313;SDS011;5202;49.138;10.090;2022-08-23T06:00:10;4.00;;;3.13;;
10313;SDS011;5202;49.138;10.090;2022-08-23T06:02:49;4.20;;;3.80;;
10313;SDS011;5202;49.138;10.090;2022-08-23T06:05:18;6.13;;;3.60;;
10313;SDS011;5202;49.138;10.090;2022-08-23T06:07:48;4.10;;;3.53;;
10313;SDS011;5202;49.138;10.090;2022-08-23T06:10:19;3.50;;;3.20;;
10313;SDS011;5202;49.138;10.090;2022-08-23T06:13:00;5.27;;;3.50;;
10313;SDS011;5202;49.138;10.090;2022-08-23T06:15:30;5.50;;;3.90;;
10313;SDS011;5202;49.138;10.090;2022-08-23T06:17:59;4.70;;;3.50;;
10313;SDS011;5202;49.138;10.090;2022-08-23T06:20:29;5.53;;;3.77;;
10313;SDS011;5202;49.138;10.090;2022-08-23T06:23:04;4.45;;;3.90;;
10313;SDS011;5202;49.138;10.090;2022-08-23T06:25:35;5.43;;;3.85;;
10313;SDS011;5202;49.138;10.090;2022-08-23T06:28:14;4.20;;;3.15;;
10313;SDS011;5202;49.138;10.090;2022-08-23T06:30:46;3.95;;;3.50;;
10313;SDS011;5202;49.138;10.090;2022-08-23T06:33:30;4.03;;;3.63;;
10313;SDS011;5202;49.138;10.090;2022-08-23T06:36:31;4.97;;;3.30;;
10313;SDS011;5202;49.138;10.090;2022-08-23T06:39:19;4.75;;;3.55;;
10313;SDS011;5202;49.138;10.090;2022-08-23T06:42:18;4.47;;;3.50;;
10313;SDS011;5202;49.138;10.090;2022-08-23T06:45:07;3.85;;;3.33;;
10313;SDS011;5202;49.138;10.090;2022-08-23T06:47:47;3.72;;;3.22;;
10313;SDS011;5202;49.138;10.090;2022-08-23T06:50:17;4.35;;;3.17;;
10313;SDS011;5202;49.138;10.090;2022-08-23T06:53:04;4.53;;;3.28;;
10313;SDS011;5202;49.138;10.090;2022-08-23T06:55:49;4.55;;;2.85;;
10313;SDS011;5202;49.138;10.090;2022-08-23T06:58:44;6.07;;;3.35;;
10313;SDS011;5202;49.138;10.090;2022-08-23T07:01:29;5.65;;;3.25;;
10313;SDS011;5202;49.138;10.090;2022-08-23T07:04:40;6.07;;;3.40;;
10313;SDS011;5202;49.138;10.090;2022-08-23T07:07:26;4.05;;;2.97;;
10313;SDS011;5202;49.138;10.090;2022-08-23T07:10:08;6.20;;;3.45;;
10313;SDS011;5202;49.138;10.090;2022-08-23T07:12:37;2.97;;;2.63;;
10313;SDS011;5202;49.138;10.090;2022-08-23T07:15:09;3.00;;;2.70;;
10313;SDS011;5202;49.138;10.090;2022-08-23T07:17:41;4.03;;;2.70;;
10313;SDS011;5202;49.138;10.090;2022-08-23T07:20:12;2.78;;;2.47;;
10313;SDS011;5202;49.138;10.090;2022-08-23T07:22:42;2.47;;;2.28;;
10313;SDS011;5202;49.138;10.090;2022-08-23T07:25:11;3.60;;;2.45;;
10313;SDS011;5202;49.138;10.090;2022-08-23T07:27:45;3.35;;;2.42;;
10313;SDS011;5202;49.138;10.090;2022-08-23T07:30:14;2.85;;;2.50;;
10313;SDS011;5202;49.138;10.090;2022-08-23T07:32:43;3.70;;;2.60;;
10313;SDS011;5202;49.138;10.090;2022-08-23T07:35:20;2.83;;;2.00;;
10313;SDS011;5202;49.138;10.090;2022-08-23T07:37:52;5.10;;;2.83;;
10313;SDS011;5202;49.138;10.090;2022-08-23T07:40:21;2.58;;;2.20;;
10313;SDS011;5202;49.138;10.090;2022-08-23T07:42:55;4.80;;;2.28;;
10313;SDS011;5202;49.138;10.090;2022-08-23T07:45:25;2.80;;;2.15;;
10313;SDS011;5202;49.138;10.090;2022-08-23T07:47:57;3.28;;;1.88;;
10313;SDS011;5202;49.138;10.090;2022-08-23T07:50:34;2.72;;;2.22;;
10313;SDS011;5202;49.138;10.090;2022-08-23T07:53:15;3.13;;;1.90;;
10313;SDS011;5202;49.138;10.090;2022-08-23T07:56:04;2.17;;;1.98;;
10313;SDS011;5202;49.138;10.090;2022-08-23T07:59:12;2.92;;;1.85;;
10313;SDS011;5202;49.138;10.090;2022-08-23T08:02:13;5.32;;;1.95;;
10313;SDS011;5202;49.138;10.090;2022-08-23T08:04:43;2.20;;;1.70;;
10313;SDS011;5202;49.138;10.090;2022-08-23T08:07:12;5.53;;;1.90;;
10313;SDS011;5202;49.138;10.090;2022-08-23T08:09:54;3.03;;;2.30;;
10313;SDS011;5202;49.138;10.090;2022-08-23T08:12:23;5.07;;;1.80;;
10313;SDS011;5202;49.138;10.090;2022-08-23T08:14:54;3.55;;;2.00;;
10313;SDS011;5202;49.138;10.090;2022-08-23T08:17:28;2.95;;;2.03;;
10313;SDS011;5202;49.138;10.090;2022-08-23T08:20:15;2.65;;;2.17;;
10313;SDS011;5202;49.138;10.090;2022-08-23T08:22:51;4.72;;;1.92;;
10313;SDS011;5202;49.138;10.090;2022-08-23T08:25:25;2.33;;;2.10;;
10313;SDS011;5202;49.138;10.090;2022-08-23T08:27:55;3.72;;;2.08;;
10313;SDS011;5202;49.138;10.090;2022-08-23T08:30:25;2.10;;;1.90;;
10313;SDS011;5202;49.138;10.090;2022-08-23T08:32:54;3.00;;;1.90;;
10313;SDS011;5202;49.138;10.090;2022-08-23T08:35:23;2.97;;;1.80;;
10313;SDS011;5202;49.138;10.090;2022-08-23T08:37:53;4.72;;;2.00;;
10313;SDS011;5202;49.138;10.090;2022-08-23T08:40:24;3.05;;;1.75;;
10313;SDS011;5202;49.138;10.090;2022-08-23T08:43:02;2.67;;;1.73;;
10313;SDS011;5202;49.138;10.090;2022-08-23T08:45:51;2.60;;;2.10;;
10313;SDS011;5202;49.138;10.090;2022-08-23T08:48:31;2.70;;;2.08;;
10313;SDS011;5202;49.138;10.090;2022-08-23T08:51:12;2.42;;;1.90;;
10313;SDS011;5202;49.138;10.090;2022-08-23T08:53:53;2.80;;;2.15;;
10313;SDS011;5202;49.138;10.090;2022-08-23T08:56:29;1.52;;;1.42;;
10313;SDS011;5202;49.138;10.090;2022-08-23T08:59:07;4.78;;;1.90;;
10313;SDS011;5202;49.138;10.090;2022-08-23T09:01:47;5.93;;;2.08;;
10313;SDS011;5202;49.138;10.090;2022-08-23T09:04:22;4.38;;;1.80;;
10313;SDS011;5202;49.138;10.090;2022-08-23T09:06:54;2.55;;;1.80;;
10313;SDS011;5202;49.138;10.090;2022-08-23T09:09:37;2.42;;;2.20;;
10313;SDS011;5202;49.138;10.090;2022-08-23T09:12:54;4.28;;;1.75;;
10313;SDS011;5202;49.138;10.090;2022-08-23T09:15:32;5.47;;;2.22;;
10313;SDS011;5202;49.138;10.090;2022-08-23T09:18:06;3.70;;;2.30;;
10313;SDS011;5202;49.138;10.090;2022-08-23T09:20:37;3.95;;;1.88;;
10313;SDS011;5202;49.138;10.090;2022-08-23T09:23:10;6.72;;;1.95;;
10313;SDS011;5202;49.138;10.090;2022-08-23T09:25:50;2.90;;;1.90;;
10313;SDS011;5202;49.138;10.090;2022-08-23T09:28:25;5.78;;;1.95;;
10313;SDS011;5202;49.138;10.090;2022-08-23T09:30:57;3.33;;;2.03;;
10313;SDS011;5202;49.138;10.090;2022-08-23T09:33:35;4.80;;;2.28;;
10313;SDS011;5202;49.138;10.090;2022-08-23T09:36:15;2.58;;;1.70;;
10313;SDS011;5202;49.138;10.090;2022-08-23T09:38:54;2.22;;;1.75;;
10313;SDS011;5202;49.138;10.090;2022-08-23T09:41:27;2.65;;;2.03;;
10313;SDS011;5202;49.138;10.090;2022-08-23T09:44:03;2.75;;;1.70;;
10313;SDS011;5202;49.138;10.090;2022-08-23T09:46:35;3.35;;;1.70;;
10313;SDS011;5202;49.138;10.090;2022-08-23T09:49:23;3.70;;;1.80;;
10313;SDS011;5202;49.138;10.090;2022-08-23T09:52:09;3.88;;;1.92;;
10313;SDS011;5202;49.138;10.090;2022-08-23T09:54:55;5.18;;;1.95;;
10313;SDS011;5202;49.138;10.090;2022-08-23T09:57:27;5.18;;;2.20;;
10313;SDS011;5202;49.138;10.090;2022-08-23T09:59:59;2.40;;;2.20;;
10313;SDS011;5202;49.138;10.090;2022-08-23T10:02:37;2.47;;;1.67;;
10313;SDS011;5202;49.138;10.090;2022-08-23T10:05:15;3.10;;;1.90;;
10313;SDS011;5202;49.138;10.090;2022-08-23T10:07:53;2.03;;;1.80;;
10313;SDS011;5202;49.138;10.090;2022-08-23T10:10:27;4.85;;;2.00;;
10313;SDS011;5202;49.138;10.090;2022-08-23T10:13:06;4.85;;;2.00;;
10313;SDS011;5202;49.138;10.090;2022-08-23T10:15:39;5.85;;;1.70;;
10313;SDS011;5202;49.138;10.090;2022-08-23T10:18:21;4.75;;;1.90;;
10313;SDS011;5202;49.138;10.090;2022-08-23T10:21:03;4.03;;;2.47;;
10313;SDS011;5202;49.138;10.090;2022-08-23T10:23:56;4.25;;;2.40;;
10313;SDS011;5202;49.138;10.090;2022-08-23T10:26:56;4.28;;;1.92;;
10313;SDS011;5202;49.138;10.090;2022-08-23T10:29:58;3.45;;;1.85;;
10313;SDS011;5202;49.138;10.090;2022-08-23T10:32:41;13.27;;;2.00;;
10313;SDS011;5202;49.138;10.090;2022-08-23T10:35:26;5.53;;;2.10;;
10313;SDS011;5202;49.138;10.090;2022-08-23T10:38:10;3.17;;;2.10;;
10313;SDS011;5202;49.138;10.090;2022-08-23T10:41:02;3.20;;;2.20;;
10313;SDS011;5202;49.138;10.090;2022-08-23T10:43:43;3.70;;;1.90;;
10313;SDS011;5202;49.138;10.090;2022-08-23T10:46:21;3.50;;;1.70;;
10313;SDS011;5202;49.138;10.090;2022-08-23T10:48:51;3.30;;;2.28;;
10313;SDS011;5202;49.138;10.090;2022-08-23T10:51:26;3.80;;;1.73;;
10313;SDS011;5202;49.138;10.090;2022-08-23T10:54:01;1.80;;;1.48;;
10313;SDS011;5202;49.138;10.090;2022-08-23T10:56:33;2.65;;;1.80;;
10313;SDS011;5202;49.138;10.090;2022-08-23T10:59:16;3.47;;;2.20;;
10313;SDS011;5202;49.138;10.090;2022-08-23T11:01:54;2.30;;;1.58;;
10313;SDS011;5202;49.138;10.090;2022-08-23T11:04:34;4.50;;;1.85;;
10313;SDS011;5202;49.138;10.090;2022-08-23T11:07:19;5.10;;;1.90;;
10313;SDS011;5202;49.138;10.090;2022-08-23T11:09:56;6.55;;;1.75;;
10313;SDS011;5202;49.138;10.090;2022-08-23T11:12:53;2.45;;;1.90;;
10313;SDS011;5202;49.138;10.090;2022-08-23T11:15:27;2.75;;;1.60;;
10313;SDS011;5202;49.138;10.090;2022-08-23T11:21:06;3.50;;;1.73;;
10313;SDS011;5202;49.138;10.090;2022-08-23T11:23:48;4.97;;;1.92;;
10313;SDS011;5202;49.138;10.090;2022-08-23T11:29:39;3.22;;;1.63;;
10313;SDS011;5202;49.138;10.090;2022-08-23T11:32:33;6.15;;;1.77;;
10313;SDS011;5202;49.138;10.090;2022-08-23T11:35:11;3.22;;;1.65;;
10313;SDS011;5202;49.138;10.090;2022-08-23T11:38:09;4.03;;;1.70;;
10313;SDS011;5202;49.138;10.090;2022-08-23T11:43:34;4.05;;;1.92;;
10313;SDS011;5202;49.138;10.090;2022-08-23T11:49:14;4.07;;;1.60;;
10313;SDS011;5202;49.138;10.090;2022-08-23T11:52:10;6.07;;;1.80;;
10313;SDS011;5202;49.138;10.090;2022-08-23T11:58:14;5.78;;;1.90;;
10313;SDS011;5202;49.138;10.090;2022-08-23T12:00:54;3.97;;;1.90;;
10313;SDS011;5202;49.138;10.090;2022-08-23T12:03:33;3.55;;;2.05;;
10313;SDS011;5202;49.138;10.090;2022-08-23T12:06:41;5.13;;;1.67;;
10313;SDS011;5202;49.138;10.090;2022-08-23T12:12:27;2.22;;;1.70;;
10313;SDS011;5202;49.138;10.090;2022-08-23T12:15:07;4.10;;;1.80;;
10313;SDS011;5202;49.138;10.090;2022-08-23T12:17:55;3.72;;;1.77;;
10313;SDS011;5202;49.138;10.090;2022-08-23T12:20:39;3.20;;;1.55;;
10313;SDS011;5202;49.138;10.090;2022-08-23T12:23:18;4.55;;;1.80;;
10313;SDS011;5202;49.138;10.090;2022-08-23T12:25:58;3.55;;;2.00;;
10313;SDS011;5202;49.138;10.090;2022-08-23T12:28:32;6.13;;;1.85;;
10313;SDS011;5202;49.138;10.090;2022-08-23T12:31:11;4.88;;;1.98;;
10313;SDS011;5202;49.138;10.090;2022-08-23T12:33:56;6.10;;;1.67;;
10313;SDS011;5202;49.138;10.090;2022-08-23T12:36:44;4.30;;;1.73;;
10313;SDS011;5202;49.138;10.090;2022-08-23T12:39:26;3.95;;;1.60;;
10313;SDS011;5202;49.138;10.090;2022-08-23T12:42:03;3.10;;;1.70;;
10313;SDS011;5202;49.138;10.090;2022-08-23T12:44:39;3.92;;;2.05;;
10313;SDS011;5202;49.138;10.090;2022-08-23T12:47:09;3.25;;;1.80;;
10313;SDS011;5202;49.138;10.090;2022-08-23T12:49:51;3.45;;;1.70;;
10313;SDS011;5202;49.138;10.090;2022-08-23T12:52:25;3.75;;;2.00;;
10313;SDS011;5202;49.138;10.090;2022-08-23T12:54:57;2.80;;;1.92;;
10313;SDS011;5202;49.138;10.090;2022-08-23T12:57:30;3.70;;;2.33;;
10313;SDS011;5202;49.138;10.090;2022-08-23T13:00:09;6.28;;;2.03;;
10313;SDS011;5202;49.138;10.090;2022-08-23T13:02:48;2.70;;;1.77;;
10313;SDS011;5202;49.138;10.090;2022-08-23T13:05:26;4.75;;;1.98;;
10313;SDS011;5202;49.138;10.090;2022-08-23T13:08:04;3.30;;;1.60;;
10313;SDS011;5202;49.138;10.090;2022-08-23T13:10:36;2.20;;;1.58;;
10313;SDS011;5202;49.138;10.090;2022-08-23T13:13:11;2.17;;;1.80;;
10313;SDS011;5202;49.138;10.090;2022-08-23T13:15:47;1.80;;;1.50;;
10313;SDS011;5202;49.138;10.090;2022-08-23T13:18:27;3.63;;;2.00;;
10313;SDS011;5202;49.138;10.090;2022-08-23T13:21:15;4.25;;;1.70;;
10313;SDS011;5202;49.138;10.090;2022-08-23T13:23:53;2.40;;;1.63;;
10313;SDS011;5202;49.138;10.090;2022-08-23T13:26:36;2.50;;;2.08;;
10313;SDS011;5202;49.138;10.090;2022-08-23T13:29:09;3.17;;;2.25;;
10313;SDS011;5202;49.138;10.090;2022-08-23T13:31:47;4.25;;;1.63;;
10313;SDS011;5202;49.138;10.090;2022-08-23T13:34:32;2.63;;;1.80;;
10313;SDS011;5202;49.138;10.090;2022-08-23T13:37:06;3.05;;;1.40;;
10313;SDS011;5202;49.138;10.090;2022-08-23T13:39:44;4.88;;;1.55;;
10313;SDS011;5202;49.138;10.090;2022-08-23T13:42:23;2.88;;;1.90;;
10313;SDS011;5202;49.138;10.090;2022-08-23T13:45:04;1.60;;;1.50;;
10313;SDS011;5202;49.138;10.090;2022-08-23T13:47:35;2.00;;;1.80;;
10313;SDS011;5202;49.138;10.090;2022-08-23T13:50:04;3.25;;;1.92;;
10313;SDS011;5202;49.138;10.090;2022-08-23T13:52:43;2.75;;;1.50;;
10313;SDS011;5202;49.138;10.090;2022-08-23T13:55:33;2.28;;;1.45;;
10313;SDS011;5202;49.138;10.090;2022-08-23T13:58:09;2.50;;;1.80;;
10313;SDS011;5202;49.138;10.090;2022-08-23T14:00:42;6.10;;;1.85;;
10313;SDS011;5202;49.138;10.090;2022-08-23T14:03:21;2.58;;;1.50;;
10313;SDS011;5202;49.138;10.090;2022-08-23T14:05:50;5.07;;;1.60;;
10313;SDS011;5202;49.138;10.090;2022-08-23T14:08:19;1.70;;;1.33;;
10313;SDS011;5202;49.138;10.090;2022-08-23T14:10:48;3.30;;;1.85;;
10313;SDS011;5202;49.138;10.090;2022-08-23T14:13:16;3.08;;;1.90;;
10313;SDS011;5202;49.138;10.090;2022-08-23T14:15:48;6.15;;;2.13;;
10313;SDS011;5202;49.138;10.090;2022-08-23T14:18:22;4.80;;;1.63;;
10313;SDS011;5202;49.138;10.090;2022-08-23T14:20:50;9.32;;;2.47;;
10313;SDS011;5202;49.138;10.090;2022-08-23T14:23:19;1.92;;;1.50;;
10313;SDS011;5202;49.138;10.090;2022-08-23T14:25:50;2.67;;;1.63;;
10313;SDS011;5202;49.138;10.090;2022-08-23T14:28:25;2.60;;;1.65;;
10313;SDS011;5202;49.138;10.090;2022-08-23T14:30:56;3.05;;;1.85;;
10313;SDS011;5202;49.138;10.090;2022-08-23T14:33:25;3.10;;;1.90;;
10313;SDS011;5202;49.138;10.090;2022-08-23T14:35:53;2.08;;;1.58;;
10313;SDS011;5202;49.138;10.090;2022-08-23T14:38:22;5.40;;;2.00;;
10313;SDS011;5202;49.138;10.090;2022-08-23T14:40:54;3.75;;;1.80;;
10313;SDS011;5202;49.138;10.090;2022-08-23T14:43:25;2.30;;;1.58;;
10313;SDS011;5202;49.138;10.090;2022-08-23T14:45:55;2.85;;;1.80;;
10313;SDS011;5202;49.138;10.090;2022-08-23T14:48:26;4.75;;;1.73;;
10313;SDS011;5202;49.138;10.090;2022-08-23T14:50:55;5.30;;;2.17;;
10313;SDS011;5202;49.138;10.090;2022-08-23T14:53:25;2.30;;;1.63;;
10313;SDS011;5202;49.138;10.090;2022-08-23T14:55:56;3.10;;;1.85;;
10313;SDS011;5202;49.138;10.090;2022-08-23T14:58:44;2.35;;;1.50;;
10313;SDS011;5202;49.138;10.090;2022-08-23T15:01:14;4.10;;;1.80;;
10313;SDS011;5202;49.138;10.090;2022-08-23T15:03:44;4.68;;;1.88;;
10313;SDS011;5202;49.138;10.090;2022-08-23T15:06:15;3.13;;;1.83;;
10313;SDS011;5202;49.138;10.090;2022-08-23T15:08:46;5.32;;;1.70;;
10313;SDS011;5202;49.138;10.090;2022-08-23T15:11:14;2.67;;;1.60;;
10313;SDS011;5202;49.138;10.090;2022-08-23T15:14:03;2.35;;;2.15;;
10313;SDS011;5202;49.138;10.090;2022-08-23T15:16:33;3.80;;;1.88;;
10313;SDS011;5202;49.138;10.090;2022-08-23T15:19:02;4.40;;;1.88;;
10313;SDS011;5202;49.138;10.090;2022-08-23T15:21:32;5.00;;;1.92;;
10313;SDS011;5202;49.138;10.090;2022-08-23T15:24:00;4.28;;;1.88;;
10313;SDS011;5202;49.138;10.090;2022-08-23T15:26:29;2.75;;;1.70;;
10313;SDS011;5202;49.138;10.090;2022-08-23T15:28:58;3.25;;;1.83;;
10313;SDS011;5202;49.138;10.090;2022-08-23T15:31:27;3.40;;;1.75;;
10313;SDS011;5202;49.138;10.090;2022-08-23T15:33:58;4.28;;;2.00;;
10313;SDS011;5202;49.138;10.090;2022-08-23T15:36:26;4.80;;;2.00;;
10313;SDS011;5202;49.138;10.090;2022-08-23T15:38:57;3.30;;;1.95;;
10313;SDS011;5202;49.138;10.090;2022-08-23T15:41:25;3.65;;;1.77;;
10313;SDS011;5202;49.138;10.090;2022-08-23T15:43:53;3.58;;;1.73;;
10313;SDS011;5202;49.138;10.090;2022-08-23T15:46:22;3.47;;;1.92;;
10313;SDS011;5202;49.138;10.090;2022-08-23T15:48:52;2.08;;;1.88;;
10313;SDS011;5202;49.138;10.090;2022-08-23T15:51:27;2.88;;;1.67;;
10313;SDS011;5202;49.138;10.090;2022-08-23T15:53:56;3.75;;;1.98;;
10313;SDS011;5202;49.138;10.090;2022-08-23T15:56:27;4.60;;;1.75;;